Time;durP1;ratioP1;P1;durP2;ratioP2;P2;SDS_P1;SDS_P2;PMS_P1;PMS_P2;Temp;Humidity;BMP_temperature;BMP_pressure;BME280_temperature;BME280_humidity;BME280_pressure;Samples;Min_cycle;Max_cycle;Signal;HPM_P1;HPM_P2
2023/10/24 00:00:27;;;;;;;34.80;26.60;;;;;;;5.54;100.00;99282.59;430397;1273;139772;-63
2023/10/24 00:10:34;;;;;;;40.80;31.90;;;;;;;5.57;100.00;99278.95;430392;1273;139329;-62
2023/10/24 00:20:40;;;;;;;34.20;29.60;;;;;;;5.79;100.00;99279.80;430587;1270;141474;-62
2023/10/24 00:30:46;;;;;;;33.30;29.10;;;;;;;6.16;100.00;99269.84;430781;1272;139612;-63
2023/10/24 00:40:52;;;;;;;32.60;29.20;;;;;;;6.24;100.00;99264.05;430652;1272;139609;-63
2023/10/24 00:50:58;;;;;;;36.20;31.10;;;;;;;6.14;100.00;99263.90;431063;1271;139399;-62
2023/10/24 01:01:05;;;;;;;29.20;25.70;;;;;;;5.98;100.00;99266.73;430972;1270;140804;-63
2023/10/24 01:11:12;;;;;;;30.60;27.20;;;;;;;5.74;100.00;99271.87;431397;1270;139643;-62
2023/10/24 01:21:17;;;;;;;26.90;24.20;;;;;;;5.46;100.00;99261.29;430760;1270;139877;-63
2023/10/24 01:31:24;;;;;;;36.10;27.80;;;;;;;5.41;100.00;99259.61;431071;1272;141082;-62
2023/10/24 01:41:30;;;;;;;35.30;30.20;;;;;;;5.40;100.00;99252.17;431016;1273;139789;-63
2023/10/24 01:51:36;;;;;;;34.80;30.20;;;;;;;5.51;100.00;99248.34;430384;1273;139439;-63
2023/10/24 02:01:42;;;;;;;35.80;31.10;;;;;;;5.51;100.00;99241.73;430312;1270;142962;-64
2023/10/24 02:11:48;;;;;;;34.80;28.50;;;;;;;5.55;100.00;99237.56;430405;1272;140380;-63
2023/10/24 02:21:54;;;;;;;34.00;24.20;;;;;;;5.69;100.00;99217.45;430383;1273;139673;-63
2023/10/24 02:32:00;;;;;;;36.40;25.60;;;;;;;5.84;100.00;99204.01;430361;1271;139486;-63
2023/10/24 02:42:06;;;;;;;29.90;24.30;;;;;;;5.88;100.00;99194.06;430587;1268;139343;-63
2023/10/24 02:52:12;;;;;;;25.50;21.10;;;;;;;5.83;100.00;99195.73;430753;1271;139920;-64
2023/10/24 03:02:18;;;;;;;22.20;19.90;;;;;;;5.72;100.00;99197.13;430392;1272;139438;-63
2023/10/24 03:12:24;;;;;;;23.20;20.70;;;;;;;5.69;100.00;99204.77;430446;1270;139277;-62
2023/10/24 03:22:29;;;;;;;26.00;20.50;;;;;;;5.70;100.00;99204.52;430433;1270;139963;-63
2023/10/24 03:32:35;;;;;;;24.30;21.20;;;;;;;5.75;100.00;99198.23;431204;1269;139858;-63
2023/10/24 03:42:41;;;;;;;24.40;20.60;;;;;;;5.77;100.00;99182.11;431299;1272;139419;-63
2023/10/24 03:52:49;;;;;;;24.60;21.40;;;;;;;5.79;100.00;99175.62;431137;1270;139261;-63
2023/10/24 04:02:53;;;;;;;;;;;;;;;5.78;100.00;99165.23;431370;1271;140283;-62
2023/10/24 04:12:59;;;;;;;21.50;18.90;;;;;;;5.76;100.00;99156.29;431538;1273;126352;-65
2023/10/24 04:23:12;;;;;;;29.40;20.80;;;;;;;5.74;100.00;99168.55;431691;1271;140122;-62
2023/10/24 04:33:18;;;;;;;26.30;22.00;;;;;;;5.76;100.00;99184.61;430754;1270;139621;-63
2023/10/24 04:43:24;;;;;;;25.30;22.10;;;;;;;5.85;100.00;99185.35;430461;1273;139681;-63
2023/10/24 04:53:30;;;;;;;31.70;24.20;;;;;;;5.94;100.00;99173.83;431407;1270;139198;-62
2023/10/24 05:03:38;;;;;;;25.50;21.30;;;;;;;6.01;100.00;99176.58;430298;1270;139942;-62
2023/10/24 05:13:44;;;;;;;22.60;19.50;;;;;;;6.09;100.00;99162.65;430835;1269;139911;-62
2023/10/24 05:23:51;;;;;;;23.70;19.90;;;;;;;6.15;100.00;99144.08;430653;1272;140736;-62
2023/10/24 05:33:57;;;;;;;23.00;20.50;;;;;;;6.25;100.00;99154.66;430783;1272;139474;-63
2023/10/24 05:44:03;;;;;;;27.00;21.80;;;;;;;6.34;100.00;99162.73;431126;1269;140293;-63
2023/10/24 05:54:09;;;;;;;22.30;20.00;;;;;;;6.43;100.00;99154.09;431282;1272;139856;-63
2023/10/24 06:04:14;;;;;;;25.50;21.50;;;;;;;6.59;100.00;99163.98;431144;1272;139527;-63
2023/10/24 06:14:20;;;;;;;24.20;20.00;;;;;;;6.75;100.00;99184.20;430868;1270;139907;-63
2023/10/24 06:24:26;;;;;;;26.40;21.40;;;;;;;6.85;100.00;99182.60;431839;1270;139290;-64
2023/10/24 06:34:33;;;;;;;24.80;19.30;;;;;;;6.97;100.00;99169.61;430991;1272;139456;-64
2023/10/24 06:44:39;;;;;;;29.00;22.30;;;;;;;7.29;100.00;99144.13;430545;1270;139358;-63
2023/10/24 06:54:45;;;;;;;20.50;17.60;;;;;;;8.19;100.00;99143.39;430979;1272;307709;-64
2023/10/24 07:04:51;;;;;;;19.90;17.50;;;;;;;8.64;100.00;99119.02;431265;1272;141709;-64
2023/10/24 07:14:58;;;;;;;19.20;15.10;;;;;;;8.58;100.00;99123.59;430734;1272;139682;-65
2023/10/24 07:25:05;;;;;;;15.80;13.50;;;;;;;8.68;100.00;99090.98;430708;1272;139927;-64
2023/10/24 07:35:11;;;;;;;16.50;12.50;;;;;;;9.06;100.00;99079.51;431843;1270;139796;-64
2023/10/24 07:45:17;;;;;;;21.30;14.00;;;;;;;9.34;100.00;99090.56;431182;1270;140841;-63
2023/10/24 07:55:23;;;;;;;19.30;15.60;;;;;;;9.74;100.00;99085.08;431429;1270;139942;-64
2023/10/24 08:05:29;;;;;;;14.50;12.90;;;;;;;10.17;100.00;99099.61;430729;1270;139402;-63
2023/10/24 08:15:35;;;;;;;11.60;10.50;;;;;;;11.44;100.00;99077.61;430850;1270;139680;-64
2023/10/24 08:25:41;;;;;;;7.50;6.60;;;;;;;16.54;100.00;99076.32;430719;1272;139790;-63
2023/10/24 08:35:47;;;;;;;9.60;6.00;;;;;;;19.81;100.00;99074.44;430902;1272;138913;-64
2023/10/24 08:45:54;;;;;;;7.30;6.30;;;;;;;19.06;100.00;99069.75;431717;1271;139232;-63
2023/10/24 08:56:00;;;;;;;6.30;5.50;;;;;;;18.82;100.00;99054.76;432306;1270;139503;-64
2023/10/24 09:06:09;;;;;;;6.20;5.60;;;;;;;19.33;100.00;99031.12;430732;1273;139133;-64
2023/10/24 09:16:15;;;;;;;8.10;4.70;;;;;;;19.05;99.57;98995.48;431190;1270;138819;-64
2023/10/24 09:26:23;;;;;;;6.70;3.60;;;;;;;17.96;97.42;98986.14;430733;1272;139431;-65
2023/10/24 09:36:29;;;;;;;4.20;3.20;;;;;;;16.79;96.70;98964.96;431297;1271;138519;-63
2023/10/24 09:46:36;;;;;;;5.80;3.20;;;;;;;16.04;96.42;98944.38;431762;1272;138926;-64
2023/10/24 09:56:43;;;;;;;4.40;2.50;;;;;;;15.42;96.37;98930.13;432144;1270;139150;-65
2023/10/24 10:06:49;;;;;;;4.60;3.30;;;;;;;15.00;95.92;98923.98;431987;1271;139934;-64
2023/10/24 10:17:14;;;;;;;8.30;3.50;;;;;;;14.75;96.04;98929.05;431675;1270;139251;-64
2023/10/24 10:27:31;;;;;;;5.50;3.50;;;;;;;14.70;96.98;98933.08;432364;1271;139240;-64
2023/10/24 10:37:38;;;;;;;3.90;3.00;;;;;;;14.81;97.44;98928.77;431922;1272;139181;-64
2023/10/24 10:47:44;;;;;;;3.50;3.20;;;;;;;14.93;97.63;98916.55;432265;1270;139045;-64
2023/10/24 10:58:05;;;;;;;6.30;3.00;;;;;;;15.11;97.52;98905.50;431932;1272;139086;-68
2023/10/24 11:08:18;;;;;;;6.70;3.70;;;;;;;15.39;96.06;98911.38;431370;1272;139045;-72
2023/10/24 11:18:24;;;;;;;7.90;3.10;;;;;;;15.75;96.36;98875.73;431588;1269;138956;-72
2023/10/24 11:28:30;;;;;;;6.80;4.10;;;;;;;15.67;95.26;98838.14;430959;1271;139484;-71
2023/10/24 11:38:37;;;;;;;5.00;3.20;;;;;;;15.36;94.08;98802.86;430773;1271;139345;-72
2023/10/24 11:48:42;;;;;;;3.40;2.60;;;;;;;15.37;94.54;98787.07;430879;1270;139217;-69
2023/10/24 11:58:48;;;;;;;5.50;2.70;;;;;;;15.38;94.07;98810.59;430625;1270;139401;-68
2023/10/24 12:08:55;;;;;;;4.80;3.10;;;;;;;15.36;94.37;98812.38;430724;1270;140360;-68
2023/10/24 12:19:01;;;;;;;5.20;3.30;;;;;;;15.38;94.26;98790.91;430709;1271;140224;-67
2023/10/24 12:29:09;;;;;;;4.40;3.10;;;;;;;15.41;94.69;98774.41;430970;1271;139418;-68
2023/10/24 12:39:17;;;;;;;6.30;3.20;;;;;;;15.52;94.55;98788.80;431198;1271;139568;-68
2023/10/24 12:49:23;;;;;;;4.70;2.80;;;;;;;15.63;94.70;98764.17;431850;1271;139483;-62
2023/10/24 12:59:29;;;;;;;3.40;3.00;;;;;;;15.60;94.11;98747.15;430877;1273;139170;-63
2023/10/24 13:09:36;;;;;;;5.20;3.50;;;;;;;15.54;94.10;98736.80;430676;1273;139775;-63
2023/10/24 13:19:43;;;;;;;5.10;4.30;;;;;;;15.47;94.38;98729.36;431064;1272;140177;-64
2023/10/24 13:29:49;;;;;;;8.00;4.40;;;;;;;15.33;94.78;98722.06;430861;1271;139262;-64
2023/10/24 13:39:55;;;;;;;6.20;5.30;;;;;;;15.24;95.39;98716.95;430803;1273;139250;-62
2023/10/24 13:50:01;;;;;;;7.50;6.70;;;;;;;15.06;95.69;98694.86;430559;1271;139280;-63
2023/10/24 14:00:09;;;;;;;8.30;6.80;;;;;;;14.76;96.57;98670.58;431107;1272;139381;-64
2023/10/24 14:10:15;;;;;;;10.80;7.90;;;;;;;14.45;97.61;98652.17;432014;1272;139391;-62
2023/10/24 14:20:21;;;;;;;9.10;8.20;;;;;;;14.20;98.58;98627.21;430841;1270;139426;-63
2023/10/24 14:30:27;;;;;;;12.30;10.60;;;;;;;13.93;99.57;98612.02;430824;1271;139118;-62
2023/10/24 14:40:33;;;;;;;13.90;11.00;;;;;;;13.68;100.00;98614.28;430778;1272;139862;-62
2023/10/24 14:50:40;;;;;;;13.50;11.90;;;;;;;13.45;100.00;98622.20;430680;1271;140178;-62
2023/10/24 15:00:47;;;;;;;17.40;10.50;;;;;;;13.21;100.00;98618.84;431099;1272;139688;-63
2023/10/24 15:10:53;;;;;;;15.10;10.20;;;;;;;12.94;100.00;98607.23;430879;1272;139621;-63
2023/10/24 15:21:02;;;;;;;10.60;9.00;;;;;;;12.68;100.00;98604.59;430656;1271;139702;-62
2023/10/24 15:31:08;;;;;;;13.90;9.70;;;;;;;12.47;100.00;98596.06;430679;1271;139844;-63
2023/10/24 15:41:14;;;;;;;10.30;8.30;;;;;;;12.31;100.00;98576.37;430776;1270;140528;-63
2023/10/24 15:51:21;;;;;;;11.00;10.00;;;;;;;12.18;100.00;98544.17;430952;1272;139702;-62
2023/10/24 16:01:27;;;;;;;13.30;10.10;;;;;;;12.07;100.00;98530.35;431568;1270;140583;-62
2023/10/24 16:11:33;;;;;;;12.40;9.90;;;;;;;11.97;100.00;98519.66;431190;1271;139561;-63
2023/10/24 16:21:39;;;;;;;13.90;12.10;;;;;;;11.87;100.00;98511.23;430458;1271;141714;-62
2023/10/24 16:31:45;;;;;;;12.60;10.30;;;;;;;11.76;100.00;98494.57;430460;1273;140565;-62
2023/10/24 16:41:51;;;;;;;13.80;12.20;;;;;;;11.66;100.00;98494.58;430773;1273;139527;-61
2023/10/24 16:51:57;;;;;;;14.90;12.30;;;;;;;11.59;100.00;98499.95;430847;1271;139718;-62
2023/10/24 17:02:03;;;;;;;15.20;13.40;;;;;;;11.52;100.00;98477.91;430797;1272;139575;-62
2023/10/24 17:12:10;;;;;;;18.50;14.80;;;;;;;11.45;100.00;98444.63;431485;1272;139628;-60
2023/10/24 17:22:16;;;;;;;17.70;15.70;;;;;;;11.40;100.00;98435.09;431691;1273;140338;-62
2023/10/24 17:32:22;;;;;;;23.50;15.30;;;;;;;11.36;100.00;98430.54;430870;1271;140547;-61
2023/10/24 17:42:28;;;;;;;17.00;15.00;;;;;;;11.34;100.00;98421.27;430797;1271;140472;-62
2023/10/24 17:52:34;;;;;;;17.80;15.70;;;;;;;11.33;100.00;98414.15;430663;1273;140547;-62
2023/10/24 18:02:40;;;;;;;17.20;15.50;;;;;;;11.32;100.00;98408.84;430791;1272;139970;-61
2023/10/24 18:12:47;;;;;;;18.50;14.50;;;;;;;11.30;100.00;98373.28;430694;1273;140171;-65
2023/10/24 18:22:53;;;;;;;17.80;16.00;;;;;;;11.24;100.00;98355.02;430633;1273;141606;-63
2023/10/24 18:32:59;;;;;;;17.20;15.30;;;;;;;11.20;100.00;98364.64;430872;1272;141292;-62
2023/10/24 18:43:04;;;;;;;18.20;16.20;;;;;;;11.18;100.00;98364.75;430489;1270;139876;-62
2023/10/24 18:53:13;;;;;;;18.90;15.10;;;;;;;11.19;100.00;98357.89;431378;1272;189716;-62
2023/10/24 19:03:19;;;;;;;19.30;16.40;;;;;;;11.18;100.00;98343.42;430677;1270;140340;-62
2023/10/24 19:13:36;;;;;;;23.80;17.40;;;;;;;11.18;100.00;98337.83;430642;1273;140139;-63
2023/10/24 19:23:43;;;;;;;16.80;15.10;;;;;;;11.16;100.00;98316.63;430634;1270;140534;-63
2023/10/24 19:33:50;;;;;;;18.00;15.70;;;;;;;11.16;100.00;98301.22;430440;1272;140228;-62
2023/10/24 19:43:58;;;;;;;15.10;13.60;;;;;;;11.17;100.00;98286.23;430860;1270;140702;-63
2023/10/24 19:54:06;;;;;;;16.30;13.20;;;;;;;11.17;100.00;98265.04;430889;1272;140094;-63
2023/10/24 20:04:14;;;;;;;17.90;13.50;;;;;;;11.17;100.00;98252.05;431064;1270;140021;-63
2023/10/24 20:14:20;;;;;;;;;;;;;;;11.19;100.00;98239.81;430948;1273;141612;-62
2023/10/24 20:24:27;;;;;;;13.50;11.40;;;;;;;11.19;100.00;98218.30;441373;1269;125646;-62
2023/10/24 20:34:33;;;;;;;15.90;13.10;;;;;;;11.17;100.00;98197.61;434298;1267;139536;-62
2023/10/24 20:44:39;;;;;;;16.40;14.50;;;;;;;11.11;100.00;98173.47;430657;1273;140923;-63
2023/10/24 20:54:45;;;;;;;24.00;15.10;;;;;;;11.03;100.00;98158.02;431063;1272;139390;-63
2023/10/24 21:04:51;;;;;;;15.10;13.50;;;;;;;10.98;100.00;98140.46;430624;1270;140095;-63
2023/10/24 21:14:59;;;;;;;15.90;14.10;;;;;;;10.94;100.00;98137.48;430402;1270;140085;-62
2023/10/24 21:25:05;;;;;;;16.20;13.00;;;;;;;10.88;100.00;98133.80;430811;1270;140290;-62
2023/10/24 21:35:12;;;;;;;15.70;13.90;;;;;;;10.82;100.00;98100.36;431072;1271;139729;-61
2023/10/24 21:45:18;;;;;;;15.30;13.80;;;;;;;10.77;100.00;98081.70;430716;1270;139643;-62
2023/10/24 21:55:24;;;;;;;17.40;14.10;;;;;;;10.74;100.00;98093.86;430895;1270;140519;-63
2023/10/24 22:05:29;;;;;;;16.90;14.60;;;;;;;10.72;100.00;98073.45;430703;1271;141422;-62
2023/10/24 22:15:36;;;;;;;18.40;15.90;;;;;;;10.65;100.00;98049.19;430647;1272;141065;-62
2023/10/24 22:25:41;;;;;;;18.50;16.50;;;;;;;10.60;100.00;98052.58;430733;1270;140073;-63
2023/10/24 22:35:47;;;;;;;19.20;16.80;;;;;;;10.58;100.00;98042.42;430867;1271;139904;-63
2023/10/24 22:45:53;;;;;;;19.90;17.80;;;;;;;10.60;100.00;98041.25;430856;1270;139967;-62
2023/10/24 22:55:59;;;;;;;22.60;20.40;;;;;;;10.62;100.00;98022.50;431138;1272;141193;-62
2023/10/24 23:06:05;;;;;;;24.10;21.50;;;;;;;10.62;100.00;97999.70;430825;1271;139891;-63
2023/10/24 23:16:11;;;;;;;23.50;21.00;;;;;;;10.58;100.00;97981.02;431059;1273;139820;-62
2023/10/24 23:26:17;;;;;;;20.90;18.70;;;;;;;10.55;100.00;97969.55;430862;1273;140152;-62
2023/10/24 23:36:23;;;;;;;21.50;19.10;;;;;;;10.53;100.00;97944.20;431276;1270;140094;-63
2023/10/24 23:46:28;;;;;;;25.20;21.10;;;;;;;10.49;100.00;97911.66;430947;1270;140306;-63
2023/10/24 23:56:34;;;;;;;22.40;20.00;;;;;;;10.46;100.00;97889.84;431039;1273;140707;-63
